createdAt,value
2019-04-29T00:00:57.340Z,98205.25
2019-04-29T00:03:31.779Z,98208.31
2019-04-29T00:06:04.866Z,98204.94
2019-04-29T00:08:39.144Z,98211.42
2019-04-29T00:11:13.791Z,98212.33
2019-04-29T00:13:48.652Z,98212.33
2019-04-29T00:16:43.454Z,98206.95
2019-04-29T00:19:36.482Z,98206.78
2019-04-29T00:22:10.930Z,98207.24
2019-04-29T00:24:45.274Z,98209.11
2019-04-29T00:27:19.694Z,98204.48
2019-04-29T00:29:54.074Z,98201.27
2019-04-29T00:32:28.327Z,98200.51
2019-04-29T00:35:02.731Z,98200.51
2019-04-29T00:37:53.259Z,98202.80
2019-04-29T00:41:01.630Z,98189.56
2019-04-29T00:43:44.287Z,98189.56
2019-04-29T00:46:18.936Z,98195.11
2019-04-29T00:48:53.188Z,98186.95
2019-04-29T00:51:27.637Z,98188.82
2019-04-29T00:54:07.127Z,98192.81
2019-04-29T00:56:41.877Z,98192.81
2019-04-29T00:59:14.708Z,98192.81
2019-04-29T01:01:48.948Z,98195.88
2019-04-29T01:04:21.862Z,98198.20
2019-04-29T01:06:55.940Z,98188.05
2019-04-29T01:09:30.787Z,98192.82
2019-04-29T01:12:05.104Z,98192.80
2019-04-29T01:14:40.952Z,98196.17
2019-04-29T01:17:15.284Z,98199.72
2019-04-29T01:19:49.721Z,98199.72
2019-04-29T01:22:24.286Z,98187.28
2019-04-29T01:24:58.707Z,98187.28
2019-04-29T01:27:39.278Z,98196.33
2019-04-29T01:31:15.571Z,98192.34
2019-04-29T01:33:51.548Z,98192.82
2019-04-29T01:36:30.483Z,98198.17
2019-04-29T01:39:07.475Z,98193.28
2019-04-29T01:42:04.359Z,98200.20
2019-04-29T01:44:41.274Z,98196.50
2019-04-29T01:47:15.661Z,98198.05
2019-04-29T01:49:49.917Z,98196.95
2019-04-29T01:52:22.698Z,98190.64
2019-04-29T01:54:56.928Z,98189.25
2019-04-29T01:57:31.278Z,98190.80
2019-04-29T02:00:06.276Z,98189.42
2019-04-29T02:02:40.672Z,98185.09
2019-04-29T02:08:03.683Z,98185.25
2019-04-29T02:10:42.135Z,98185.25
2019-04-29T02:13:16.659Z,98178.04
2019-04-29T02:15:50.939Z,98173.58
2019-04-29T02:18:25.275Z,98171.87
2019-04-29T02:20:59.669Z,98176.02
2019-04-29T02:23:39.307Z,98173.87
2019-04-29T02:26:13.662Z,98178.63
2019-04-29T02:28:47.940Z,98168.01
2019-04-29T02:31:42.273Z,98168.01
2019-04-29T02:34:16.698Z,98165.98
2019-04-29T02:36:50.944Z,98166.30
2019-04-29T02:39:31.280Z,98166.30
2019-04-29T02:42:27.338Z,98162.88
2019-04-29T02:45:05.946Z,98162.88
2019-04-29T02:47:39.031Z,98165.00
2019-04-29T02:50:13.681Z,98156.56
2019-04-29T02:52:48.069Z,98155.96
2019-04-29T02:55:43.279Z,98155.31
2019-04-29T02:58:29.822Z,98155.31
2019-04-29T03:01:21.416Z,98155.13
2019-04-29T03:04:13.342Z,98158.05
2019-04-29T03:06:47.753Z,98149.42
2019-04-29T03:09:22.072Z,98151.57
2019-04-29T03:11:56.647Z,98156.30
2019-04-29T03:14:31.133Z,98156.30
2019-04-29T03:17:06.697Z,98164.45
2019-04-29T03:19:59.624Z,98159.37
2019-04-29T03:22:34.576Z,98169.20
2019-04-29T03:25:09.270Z,98172.92
2019-04-29T03:27:43.683Z,98162.80
2019-04-29T03:30:18.283Z,98162.95
2019-04-29T03:32:52.738Z,98160.62
2019-04-29T03:35:27.109Z,98151.23
2019-04-29T03:38:01.683Z,98153.27
2019-04-29T03:40:36.118Z,98162.63
2019-04-29T03:43:10.638Z,98151.69
2019-04-29T03:45:45.076Z,98151.69
2019-04-29T03:48:19.676Z,98144.33
2019-04-29T03:50:54.114Z,98151.83
2019-04-29T03:53:28.829Z,98153.20
2019-04-29T03:56:01.657Z,98153.20
2019-04-29T03:58:35.847Z,98150.45
2019-04-29T04:01:33.555Z,98162.91
2019-04-29T04:04:21.296Z,98142.33
2019-04-29T04:07:04.185Z,98142.33
2019-04-29T04:09:38.246Z,98148.92
2019-04-29T04:12:12.653Z,98139.91
2019-04-29T04:14:46.945Z,98140.52
2019-04-29T04:17:33.275Z,98147.26
2019-04-29T04:20:08.282Z,98143.59
2019-04-29T04:22:49.124Z,98153.64
2019-04-29T04:25:23.680Z,98155.52
2019-04-29T04:27:57.950Z,98156.91
2019-04-29T04:30:32.621Z,98154.30
2019-04-29T04:33:06.914Z,98154.30
2019-04-29T04:35:39.854Z,98155.69
2019-04-29T04:38:13.963Z,98153.25
2019-04-29T04:41:04.703Z,98153.25
2019-04-29T04:43:38.947Z,98151.70
2019-04-29T04:46:13.326Z,98144.62
2019-04-29T04:48:47.795Z,98144.78
2019-04-29T04:51:20.665Z,98140.02
2019-04-29T04:53:54.887Z,98140.02
2019-04-29T04:56:27.784Z,98134.94
2019-04-29T04:59:01.950Z,98129.98
2019-04-29T05:01:35.282Z,98129.70
2019-04-29T05:04:09.355Z,98137.88
2019-04-29T05:06:44.073Z,98137.88
2019-04-29T05:09:18.298Z,98137.39
2019-04-29T05:11:52.702Z,98137.39
2019-04-29T05:14:26.928Z,98136.33
2019-04-29T05:17:01.251Z,98132.81
2019-04-29T05:19:35.635Z,98131.88
2019-04-29T05:22:10.668Z,98127.28
2019-04-29T05:24:46.266Z,98136.67
2019-04-29T05:27:20.888Z,98138.19
2019-04-29T05:29:54.054Z,98131.41
2019-04-29T05:32:28.373Z,98131.73
2019-04-29T05:35:05.319Z,98142.47
2019-04-29T05:37:48.265Z,98141.86
2019-04-29T05:40:39.262Z,98136.80
2019-04-29T05:43:16.338Z,98128.19
2019-04-29T05:46:28.878Z,98116.95
2019-04-29T05:49:07.337Z,98130.21
2019-04-29T05:51:57.623Z,98126.06
2019-04-29T05:54:31.750Z,98118.98
2019-04-29T05:57:06.923Z,98118.98
2019-04-29T05:59:43.417Z,98115.90
2019-04-29T06:02:17.667Z,98119.11
2019-04-29T06:04:53.727Z,98119.11
2019-04-29T06:07:28.638Z,98112.81
2019-04-29T06:10:03.734Z,98112.17
2019-04-29T06:12:38.274Z,98116.03
2019-04-29T06:15:12.693Z,98120.66
2019-04-29T06:17:46.948Z,98121.72
2019-04-29T06:20:22.901Z,98118.92
2019-04-29T06:22:57.342Z,98120.75
2019-04-29T06:25:31.714Z,98120.75
2019-04-29T06:28:06.266Z,98117.38
2019-04-29T06:30:44.901Z,98113.20
2019-04-29T06:33:17.120Z,98113.36
2019-04-29T06:35:51.658Z,98107.66
2019-04-29T06:38:26.281Z,98107.66
2019-04-29T06:41:00.815Z,98105.55
2019-04-29T06:43:34.120Z,98090.75
2019-04-29T06:46:08.664Z,98091.80
2019-04-29T06:48:42.940Z,98091.80
2019-04-29T06:51:18.319Z,98093.02
2019-04-29T06:53:53.255Z,98083.67
2019-04-29T06:56:27.766Z,98076.44
2019-04-29T06:59:02.272Z,98076.00
2019-04-29T07:01:38.678Z,98078.59
2019-04-29T07:04:13.264Z,98085.83
2019-04-29T07:06:57.079Z,98082.45
2019-04-29T07:09:23.880Z,98081.97
2019-04-29T07:12:01.331Z,98077.20
2019-04-29T07:14:38.109Z,98081.19
2019-04-29T07:17:09.397Z,98075.17
2019-04-29T07:19:44.271Z,98075.17
2019-04-29T07:22:20.930Z,98078.09
2019-04-29T07:24:54.942Z,98079.92
2019-04-29T07:27:29.318Z,98071.73
2019-04-29T07:30:06.529Z,98071.73
2019-04-29T07:32:41.943Z,98076.38
2019-04-29T07:35:16.267Z,98073.77
2019-04-29T07:37:51.252Z,98072.05
2019-04-29T07:40:25.882Z,98076.36
2019-04-29T07:43:02.871Z,98072.66
2019-04-29T07:46:03.756Z,98069.11
2019-04-29T07:48:36.943Z,98064.97
2019-04-29T07:51:09.660Z,98076.47
2019-04-29T07:53:45.521Z,98076.74
2019-04-29T07:56:20.124Z,98075.96
2019-04-29T07:58:54.651Z,98072.70
2019-04-29T08:01:29.098Z,98075.17
2019-04-29T08:04:03.314Z,98074.39
2019-04-29T08:06:38.171Z,98074.39
2019-04-29T08:09:13.885Z,98069.47
2019-04-29T08:11:46.997Z,98069.47
2019-04-29T08:14:20.547Z,98067.65
2019-04-29T08:16:55.272Z,98064.70
2019-04-29T08:19:31.488Z,98069.45
2019-04-29T08:22:05.783Z,98075.09
2019-04-29T08:24:39.948Z,98066.38
2019-04-29T08:27:12.871Z,98058.58
2019-04-29T08:29:47.090Z,98049.81
2019-04-29T08:32:21.680Z,98053.84
2019-04-29T08:34:57.926Z,98053.84
2019-04-29T08:37:32.276Z,98057.94
2019-04-29T08:40:15.871Z,98068.34
2019-04-29T08:42:47.313Z,98080.34
2019-04-29T08:45:38.962Z,98090.82
2019-04-29T08:48:13.277Z,98090.38
2019-04-29T08:50:49.269Z,98090.38
2019-04-29T08:53:23.645Z,98081.32
2019-04-29T08:55:59.330Z,98059.70
2019-04-29T08:58:33.865Z,98059.06
2019-04-29T09:01:06.647Z,98052.65
2019-04-29T09:03:41.213Z,98051.70
2019-04-29T09:06:15.685Z,98047.88
2019-04-29T09:08:55.356Z,98046.17
2019-04-29T09:11:25.946Z,98037.30
2019-04-29T09:14:00.123Z,98037.64
2019-04-29T09:16:35.302Z,98038.55
2019-04-29T09:19:09.737Z,98038.55
2019-04-29T09:21:45.623Z,98039.63
2019-04-29T09:24:19.938Z,98031.52
2019-04-29T09:27:05.037Z,98012.95
2019-04-29T09:29:36.444Z,98012.95
2019-04-29T09:32:10.944Z,98002.67
2019-04-29T09:34:45.267Z,98002.39
2019-04-29T09:37:22.930Z,98001.16
2019-04-29T09:39:55.960Z,97996.25
2019-04-29T09:42:40.087Z,97987.80
2019-04-29T09:45:33.290Z,97983.81
2019-04-29T09:48:08.080Z,97983.81
2019-04-29T09:50:42.630Z,97985.65
2019-04-29T09:53:17.328Z,97985.65
2019-04-29T09:55:51.923Z,97981.66
2019-04-29T09:58:26.325Z,97973.83
2019-04-29T10:01:22.362Z,97972.44
2019-04-29T10:04:20.113Z,97962.48
2019-04-29T10:06:57.262Z,97947.86
2019-04-29T10:09:31.737Z,97947.86
2019-04-29T10:12:06.318Z,97947.09
2019-04-29T10:14:41.273Z,97947.58
2019-04-29T10:17:35.947Z,97930.52
2019-04-29T10:20:42.421Z,97930.52
2019-04-29T10:23:16.946Z,97940.02
2019-04-29T10:25:51.278Z,97946.61
2019-04-29T10:28:25.892Z,97937.11
2019-04-29T10:31:00.295Z,97940.34
2019-04-29T10:33:35.872Z,97947.87
2019-04-29T10:36:10.269Z,97960.78
2019-04-29T10:38:46.121Z,97977.19
2019-04-29T10:41:30.938Z,97992.22
2019-04-29T10:44:27.304Z,98013.27
2019-04-29T10:47:28.516Z,98022.82
2019-04-29T10:50:14.962Z,98027.42
2019-04-29T10:52:45.092Z,98021.00
2019-04-29T10:55:20.559Z,98011.78
2019-04-29T10:57:55.582Z,98011.16
2019-04-29T11:01:29.204Z,98000.88
2019-04-29T11:04:02.865Z,97998.44
2019-04-29T11:06:37.509Z,98000.56
2019-04-29T11:09:30.582Z,97995.52
2019-04-29T11:12:08.862Z,98004.58
2019-04-29T11:14:43.627Z,97970.33
2019-04-29T11:17:18.279Z,97970.33
2019-04-29T11:19:52.865Z,97960.97
2019-04-29T11:22:33.970Z,97942.84
2019-04-29T11:25:50.842Z,97936.87
2019-04-29T11:28:21.508Z,97922.88
2019-04-29T11:30:56.257Z,97928.13
2019-04-29T11:33:41.731Z,97929.48
2019-04-29T11:36:17.134Z,97923.64
2019-04-29T11:38:51.325Z,97929.78
2019-04-29T11:41:27.567Z,97929.78
2019-04-29T11:44:02.276Z,97926.74
2019-04-29T11:46:37.125Z,97927.34
2019-04-29T11:49:13.280Z,97921.22
2019-04-29T11:52:08.240Z,97919.67
2019-04-29T11:54:25.896Z,97919.67
2019-04-29T11:57:00.408Z,97911.08
2019-04-29T12:00:05.764Z,97908.00
2019-04-29T12:03:00.445Z,97909.22
2019-04-29T12:05:44.781Z,97896.16
2019-04-29T12:08:18.464Z,97903.55
2019-04-29T12:11:06.669Z,97898.31
2019-04-29T12:13:41.395Z,97905.08
2019-04-29T12:16:26.924Z,97901.23
2019-04-29T12:19:07.587Z,97888.48
2019-04-29T12:21:42.315Z,97896.02
2019-04-29T12:24:17.273Z,97893.87
2019-04-29T12:26:51.896Z,97895.88
2019-04-29T12:29:24.858Z,97884.95
2019-04-29T12:32:06.328Z,97880.06
2019-04-29T12:35:16.817Z,97873.43
2019-04-29T12:38:13.946Z,97874.53
2019-04-29T12:41:00.123Z,97865.75
2019-04-29T12:43:54.089Z,97866.39
2019-04-29T12:46:57.894Z,97866.39
2019-04-29T12:49:30.845Z,97877.30
2019-04-29T12:52:05.280Z,97872.05
2019-04-29T12:54:42.020Z,97869.00
2019-04-29T12:57:18.901Z,97869.00
2019-04-29T12:59:54.693Z,97863.77
2019-04-29T13:02:46.428Z,97868.08
2019-04-29T13:05:38.773Z,97862.82
2019-04-29T13:08:19.535Z,97867.91
2019-04-29T13:10:57.607Z,97859.30
2019-04-29T13:13:32.122Z,97859.44
2019-04-29T13:16:37.736Z,97860.38
2019-04-29T13:19:29.605Z,97860.38
2019-04-29T13:22:01.281Z,97867.44
2019-04-29T13:24:38.589Z,97864.23
2019-04-29T13:27:16.265Z,97868.52
2019-04-29T13:29:48.332Z,97865.14
2019-04-29T13:33:22.209Z,97857.73
2019-04-29T13:35:05.293Z,97859.13
2019-04-29T13:37:37.360Z,97866.19
2019-04-29T13:40:12.278Z,97863.28
2019-04-29T13:42:49.227Z,97857.45
2019-04-29T13:45:29.277Z,97855.17
2019-04-29T13:48:11.394Z,97859.91
2019-04-29T13:50:50.662Z,97858.07
2019-04-29T13:53:25.337Z,97853.33
2019-04-29T13:56:11.157Z,97843.93
2019-04-29T13:58:36.287Z,97830.27
2019-04-29T14:01:57.827Z,97833.62
2019-04-29T14:04:26.217Z,97830.73
2019-04-29T14:07:00.706Z,97829.78
2019-04-29T14:09:38.786Z,97825.20
2019-04-29T14:12:46.351Z,97825.33
2019-04-29T14:14:46.262Z,97819.34
2019-04-29T14:17:26.596Z,97821.45
2019-04-29T14:19:57.150Z,97821.45
2019-04-29T14:22:32.255Z,97824.06
2019-04-29T14:25:06.862Z,97825.44
2019-04-29T14:27:41.269Z,97825.44
2019-04-29T14:30:20.930Z,97824.03
2019-04-29T14:32:57.572Z,97824.02
2019-04-29T14:35:50.490Z,97818.48
2019-04-29T14:38:25.037Z,97828.76
2019-04-29T14:40:59.601Z,97832.09
2019-04-29T14:43:55.195Z,97832.09
2019-04-29T14:47:01.317Z,97823.75
2019-04-29T14:49:40.995Z,97823.23
2019-04-29T14:52:15.867Z,97828.34
2019-04-29T14:54:50.551Z,97827.11
2019-04-29T14:57:26.253Z,97827.11
2019-04-29T15:00:00.946Z,97826.19
2019-04-29T15:02:35.747Z,97819.54
2019-04-29T15:05:12.325Z,97822.43
2019-04-29T15:07:45.063Z,97822.89
2019-04-29T15:10:19.418Z,97819.47
2019-04-29T15:13:11.517Z,97821.66
2019-04-29T15:15:45.267Z,97827.47
2019-04-29T15:18:45.893Z,97818.36
2019-04-29T15:21:44.873Z,97818.36
2019-04-29T15:24:19.277Z,97824.02
2019-04-29T15:26:53.953Z,97824.55
2019-04-29T15:29:28.316Z,97833.05
2019-04-29T15:32:02.984Z,97835.74
2019-04-29T15:34:40.034Z,97825.93
2019-04-29T15:37:13.648Z,97831.63
2019-04-29T15:39:47.946Z,97831.63
2019-04-29T15:42:22.509Z,97834.23
2019-04-29T15:44:57.019Z,97836.94
2019-04-29T15:47:31.660Z,97837.55
2019-04-29T15:50:18.230Z,97837.55
2019-04-29T15:52:40.729Z,97844.48
2019-04-29T15:55:15.301Z,97844.78
2019-04-29T15:57:51.578Z,97841.98
2019-04-29T16:00:27.264Z,97846.10
2019-04-29T16:03:03.107Z,97841.05
2019-04-29T16:06:19.942Z,97845.98
2019-04-29T16:09:06.716Z,97854.53
2019-04-29T16:12:20.060Z,97854.53
2019-04-29T16:14:54.274Z,97840.94
2019-04-29T16:17:31.940Z,97846.05
2019-04-29T16:20:04.862Z,97847.59
2019-04-29T16:22:39.961Z,97853.13
2019-04-29T16:25:14.403Z,97862.02
2019-04-29T16:27:53.357Z,97860.95
2019-04-29T16:30:26.166Z,97854.95
2019-04-29T16:33:01.565Z,97860.94
2019-04-29T16:35:36.147Z,97861.52
2019-04-29T16:38:13.503Z,97860.33
2019-04-29T16:40:56.560Z,97865.22
2019-04-29T16:43:43.984Z,97865.02
2019-04-29T16:46:23.428Z,97864.01
2019-04-29T16:48:58.575Z,97862.31
2019-04-29T16:51:32.942Z,97862.31
2019-04-29T16:54:12.877Z,97865.08
2019-04-29T16:56:44.060Z,97865.36
2019-04-29T16:59:19.254Z,97857.55
2019-04-29T17:01:54.257Z,97857.55
2019-04-29T17:04:28.792Z,97872.13
2019-04-29T17:09:49.814Z,97863.35
2019-04-29T17:12:29.539Z,97869.25
2019-04-29T17:15:04.916Z,97866.02
2019-04-29T17:17:36.409Z,97870.98
2019-04-29T17:20:11.636Z,97880.79
2019-04-29T17:22:46.282Z,97877.78
2019-04-29T17:25:21.313Z,97877.78
2019-04-29T17:28:24.295Z,97886.64
2019-04-29T17:31:26.602Z,97886.10
2019-04-29T17:34:25.135Z,97880.28
2019-04-29T17:35:14.558Z,97863.35
2019-04-29T17:36:50.105Z,97884.75
2019-04-29T17:39:25.503Z,97883.86
2019-04-29T17:41:59.943Z,97880.33
2019-04-29T17:44:46.283Z,97881.71
2019-04-29T17:47:57.349Z,97883.72
2019-04-29T17:50:46.258Z,97877.86
2019-04-29T17:53:26.978Z,97891.83
2019-04-29T17:56:24.872Z,97888.14
2019-04-29T17:59:06.005Z,97888.14
2019-04-29T18:01:59.572Z,97890.30
2019-04-29T18:04:57.397Z,97893.69
2019-04-29T18:07:40.519Z,97893.69
2019-04-29T18:10:29.439Z,97904.61
2019-04-29T18:13:04.381Z,97899.38
2019-04-29T18:15:57.961Z,97894.65
2019-04-29T18:18:26.368Z,97894.81
2019-04-29T18:21:17.342Z,97901.00
2019-04-29T18:24:06.713Z,97901.00
2019-04-29T18:26:48.087Z,97910.04
2019-04-29T18:29:22.309Z,97912.70
2019-04-29T18:32:00.643Z,97910.81
2019-04-29T18:34:37.272Z,97910.81
2019-04-29T18:37:09.944Z,97915.28
2019-04-29T18:39:43.281Z,97920.36
2019-04-29T18:42:17.328Z,97915.73
2019-04-29T18:44:59.768Z,97913.70
2019-04-29T18:47:34.825Z,97923.50
2019-04-29T18:50:05.066Z,97920.07
2019-04-29T18:52:39.644Z,97923.66
2019-04-29T18:55:14.795Z,97925.04
2019-04-29T18:57:48.949Z,97918.11
2019-04-29T19:00:25.325Z,97918.11
2019-04-29T19:03:01.215Z,97921.50
2019-04-29T19:05:48.297Z,97922.47
2019-04-29T19:08:24.544Z,97934.02
2019-04-29T19:10:59.301Z,97927.36
2019-04-29T19:13:36.078Z,97927.36
2019-04-29T19:16:12.419Z,97929.23
2019-04-29T19:18:47.478Z,97924.77
2019-04-29T19:21:23.547Z,97929.25
2019-04-29T19:24:00.465Z,97929.25
2019-04-29T19:26:32.810Z,97928.63
2019-04-29T19:29:09.601Z,97936.63
2019-04-29T19:31:46.623Z,97936.91
2019-04-29T19:34:20.723Z,97937.09
2019-04-29T19:36:59.364Z,97938.19
2019-04-29T19:39:34.815Z,97933.98
2019-04-29T19:42:08.955Z,97932.48
2019-04-29T19:44:42.286Z,97934.94
2019-04-29T19:47:16.775Z,97928.06
2019-04-29T19:49:50.023Z,97928.06
2019-04-29T19:52:31.333Z,97932.98
2019-04-29T19:55:03.342Z,97929.02
2019-04-29T19:57:42.491Z,97928.25
2019-04-29T20:00:17.783Z,97929.02
2019-04-29T20:02:51.755Z,97924.90
2019-04-29T20:05:39.917Z,97926.44
2019-04-29T20:08:37.421Z,97925.67
2019-04-29T20:10:52.457Z,97927.48
2019-04-29T20:13:31.737Z,97926.44
2019-04-29T20:16:39.759Z,97934.72
2019-04-29T20:19:21.242Z,97925.59
2019-04-29T20:21:55.981Z,97929.44
2019-04-29T20:24:31.065Z,97929.44
2019-04-29T20:27:06.470Z,97934.03
2019-04-29T20:29:41.043Z,97936.48
2019-04-29T20:32:16.580Z,97940.95
2019-04-29T20:37:36.389Z,97935.09
2019-04-29T20:40:11.822Z,97940.48
2019-04-29T20:42:49.048Z,97935.25
2019-04-29T20:45:27.295Z,97939.98
2019-04-29T20:47:58.017Z,97943.48
2019-04-29T20:50:32.811Z,97946.83
2019-04-29T20:53:15.678Z,97946.83
2019-04-29T20:55:50.191Z,97940.94
2019-04-29T20:58:31.334Z,97945.82
2019-04-29T21:01:03.090Z,97949.05
2019-04-29T21:03:40.938Z,97949.05
2019-04-29T21:06:12.291Z,97949.63
2019-04-29T21:08:51.138Z,97949.63
2019-04-29T21:11:29.331Z,97948.27
2019-04-29T21:14:15.697Z,97948.27
2019-04-29T21:16:49.888Z,97956.06
2019-04-29T21:19:23.124Z,97952.02
2019-04-29T21:21:56.026Z,97949.34
2019-04-29T21:24:28.676Z,97950.33
2019-04-29T21:27:05.298Z,97950.33
2019-04-29T21:29:39.293Z,97949.05
2019-04-29T21:32:15.599Z,97960.09
2019-04-29T21:35:00.639Z,97954.09
2019-04-29T21:37:46.640Z,97955.11
2019-04-29T21:40:31.420Z,97954.66
2019-04-29T21:43:19.462Z,97953.58
2019-04-29T21:45:55.650Z,97954.00
2019-04-29T21:48:33.485Z,97954.45
2019-04-29T21:51:06.912Z,97957.84
2019-04-29T21:53:40.802Z,97962.77
2019-04-29T21:56:16.017Z,97960.00
2019-04-29T21:58:50.544Z,97960.88
2019-04-29T22:01:25.281Z,97960.88
2019-04-29T22:04:02.137Z,97963.96
2019-04-29T22:06:35.961Z,97963.96
2019-04-29T22:09:11.500Z,97964.16
2019-04-29T22:11:46.949Z,97964.45
2019-04-29T22:14:22.283Z,97964.31
2019-04-29T22:16:57.102Z,97973.56
2019-04-29T22:19:31.660Z,97962.31
2019-04-29T22:22:06.361Z,97966.36
2019-04-29T22:24:40.740Z,97965.14
2019-04-29T22:27:16.267Z,97968.25
2019-04-29T22:29:50.870Z,97965.64
2019-04-29T22:32:23.700Z,97968.68
2019-04-29T22:35:01.097Z,97970.88
2019-04-29T22:37:38.118Z,97968.57
2019-04-29T22:40:10.784Z,97977.70
2019-04-29T22:43:08.359Z,97979.09
2019-04-29T22:45:40.659Z,97992.95
2019-04-29T22:48:19.507Z,97992.95
2019-04-29T22:50:51.719Z,97989.26
2019-04-29T22:53:26.176Z,97982.37
2019-04-29T22:56:00.693Z,97981.53
2019-04-29T22:58:39.454Z,97981.53
2019-04-29T23:01:12.584Z,97984.95
2019-04-29T23:03:47.177Z,97982.80
2019-04-29T23:06:22.047Z,97977.44
2019-04-29T23:08:56.356Z,97974.25
2019-04-29T23:11:34.806Z,97974.25
2019-04-29T23:14:10.038Z,97970.47
2019-04-29T23:16:45.424Z,97974.28
2019-04-29T23:19:19.797Z,97977.83
2019-04-29T23:22:10.522Z,97985.55
2019-04-29T23:25:09.506Z,97983.13
2019-04-29T23:27:43.958Z,97985.41
2019-04-29T23:33:07.323Z,97978.06
2019-04-29T23:35:41.686Z,97978.06
2019-04-29T23:38:16.301Z,97974.84
2019-04-29T23:40:54.489Z,97969.91
2019-04-29T23:43:28.385Z,97973.33
2019-04-29T23:46:04.853Z,97969.84
2019-04-29T23:48:39.883Z,97972.48
2019-04-29T23:51:15.373Z,97969.60
2019-04-29T23:53:49.876Z,97975.00
2019-04-29T23:56:24.357Z,97968.25
2019-04-29T23:59:05.767Z,97975.05
